KSUN/SUN METAR and TAF weather

Enter ICAO airport designator
Station Type Date Time Source
KSUN METAR 2019/12/10 06:15 UTC NOAA

KSUN 100615Z AUTO 32008KT 10SM CLR M07/M10 A3020 RMK AO2


Station Type Date Time Source
KSUN Decoded METAR 2019/12/10 06:15 UTC NOAA

Hailey, Friedman Memorial Airport, ID, United States (KSUN) 43-30N 114-18W
Dec 10, 2019 - 01:15 AM EST / 2019.12.10 0615 UTC
Wind: from the NW (320 degrees) at 9 MPH (8 KT):0
Visibility: 10 mile(s):0
Sky conditions: clear
Temperature: 19 F (-7 C)
Windchill: 8 F (-13 C):1
Dew Point: 14 F (-10 C)
Relative Humidity: 79%
Pressure (altimeter): 30.2 in. Hg (1022 hPa)
ob: KSUN 100615Z AUTO 32008KT 10SM CLR M07/M10 A3020 RMK AO2
cycle: 6

Station Type Date Time Source
KSUN TAF 2019/12/10 06:33 UTC NOAA

TAF KSUN 100530Z 1006/1112 31006KT P6SM SCT200
FM102000 15006KT P6SM FEW008 SCT180
FM110300 31007KT P6SM SCT150
AMD LTD TO CLD VIS AND WIND TIL 101300

Example: see airport list